Time;durP1;ratioP1;P1;durP2;ratioP2;P2;SDS_P1;SDS_P2;PMS_P1;PMS_P2;Temp;Humidity;BMP_temperature;BMP_pressure;BME280_temperature;BME280_humidity;BME280_pressure;Samples;Min_cycle;Max_cycle;Signal;HPM_P1;HPM_P2
2023/05/03 00:06:19;;;;;;;;;;;;;;;9.62;100.00;98380.16;18563636;32;19952;-55
2023/05/03 00:16:21;;;;;;;;;;;;;;;9.31;100.00;98387.75;18563138;32;20368;-54
2023/05/03 00:26:25;;;;;;;;;;;;;;;9.06;100.00;98387.28;18562504;32;20016;-55
2023/05/03 00:36:27;;;;;;;;;;;;;;;8.90;100.00;98384.31;18561404;32;19971;-56
2023/05/03 00:46:29;;;;;;;;;;;;;;;8.78;100.00;98387.09;18561252;32;20008;-57
2023/05/03 00:56:32;;;;;;;;;;;;;;;8.60;100.00;98387.25;18545879;31;19952;-54
2023/05/03 01:07:14;;;;;;;;;;;;;;;8.40;100.00;98387.63;18546610;32;20281;-55
2023/05/03 01:17:17;;;;;;;;;;;;;;;8.36;100.00;98387.31;18560795;32;19944;-53
2023/05/03 01:27:19;;;;;;;;;;;;;;;8.21;100.00;98370.78;18560252;32;19953;-54
2023/05/03 01:37:22;;;;;;;;;;;;;;;8.08;100.00;98361.91;18559684;32;19964;-57
2023/05/03 01:47:25;;;;;;;;;;;;;;;7.89;100.00;98374.69;18559687;32;19957;-56
2023/05/03 01:57:27;;;;;;;;;;;;;;;7.75;100.00;98362.53;18556412;32;19967;-56
2023/05/03 02:07:29;;;;;;;;;;;;;;;7.61;100.00;98356.56;18570765;32;20279;-57
2023/05/03 02:17:33;;;;;;;;;;;;;;;7.45;100.00;98341.94;18570337;32;19965;-56
2023/05/03 02:27:35;;;;;;;;;;;;;;;7.35;100.00;98347.91;18569798;32;19961;-56
2023/05/03 02:37:37;;;;;;;;;;;;;;;7.22;100.00;98342.72;18554506;32;19956;-57
2023/05/03 02:47:39;;;;;;;;;;;;;;;7.06;100.00;98350.41;18568128;31;20372;-56
2023/05/03 02:57:42;;;;;;;;;;;;;;;6.89;100.00;98341.38;18568006;32;20290;-57
2023/05/03 03:07:44;;;;;;;;;;;;;;;6.72;100.00;98344.69;18566934;32;19956;-57
2023/05/03 03:17:46;;;;;;;;;;;;;;;6.57;100.00;98333.56;18566945;32;19952;-55
2023/05/03 03:27:48;;;;;;;;;;;;;;;6.43;100.00;98331.03;18566039;32;19994;-56
2023/05/03 03:37:50;;;;;;;;;;;;;;;6.33;100.00;98354.94;18565218;32;20016;-56
2023/05/03 03:47:53;;;;;;;;;;;;;;;6.24;100.00;98349.03;18564483;32;20004;-56
2023/05/03 03:57:56;;;;;;;;;;;;;;;6.18;100.00;98354.47;18564509;32;19948;-56
2023/05/03 04:07:58;;;;;;;;;;;;;;;6.13;100.00;98357.84;18563392;32;19997;-57
2023/05/03 04:18:00;;;;;;;;;;;;;;;6.09;100.00;98352.09;18563117;32;19945;-56
2023/05/03 04:28:04;;;;;;;;;;;;;;;6.03;100.00;98365.59;18562621;32;19965;-57
2023/05/03 04:38:07;;;;;;;;;;;;;;;5.92;100.00;98372.50;18561665;32;19956;-56
2023/05/03 04:48:09;;;;;;;;;;;;;;;5.99;100.00;98377.81;18561418;32;19975;-57
2023/05/03 04:58:12;;;;;;;;;;;;;;;6.01;100.00;98381.12;18561173;32;19949;-56
2023/05/03 05:08:14;;;;;;;;;;;;;;;6.14;100.00;98380.97;18560838;32;19952;-55
2023/05/03 05:18:17;;;;;;;;;;;;;;;6.35;100.00;98384.25;18546405;32;20337;-56
2023/05/03 05:28:19;;;;;;;;;;;;;;;6.57;100.00;98385.41;18566872;31;19960;-57
2023/05/03 05:38:21;;;;;;;;;;;;;;;6.83;100.00;98399.56;18572861;32;20341;-56
2023/05/03 05:48:24;;;;;;;;;;;;;;;7.04;100.00;98414.34;18572131;32;19973;-56
2023/05/03 05:58:26;;;;;;;;;;;;;;;7.38;100.00;98420.06;18571622;32;19971;-56
2023/05/03 06:08:29;;;;;;;;;;;;;;;7.73;100.00;98416.63;18556269;32;20265;-58
2023/05/03 06:18:31;;;;;;;;;;;;;;;7.98;100.00;98394.84;18543271;32;19953;-57
2023/05/03 06:28:34;;;;;;;;;;;;;;;8.40;100.00;98390.31;18555257;32;19968;-56
2023/05/03 06:38:37;;;;;;;;;;;;;;;8.82;100.00;98385.56;18554209;32;20242;-57
2023/05/03 06:48:40;;;;;;;;;;;;;;;9.18;100.00;98393.44;18554125;32;19967;-56
2023/05/03 06:58:42;;;;;;;;;;;;;;;9.69;100.00;98390.81;18567871;32;20331;-56
2023/05/03 07:08:45;;;;;;;;;;;;;;;9.89;100.00;98363.25;18567454;32;19964;-56
2023/05/03 07:18:47;;;;;;;;;;;;;;;10.18;100.00;98355.00;18566530;31;19975;-57
2023/05/03 07:28:50;;;;;;;;;;;;;;;10.41;100.00;98343.16;18551501;32;20028;-57
2023/05/03 07:38:52;;;;;;;;;;;;;;;10.68;100.00;98332.37;18551221;32;20033;-57
2023/05/03 07:48:54;;;;;;;;;;;;;;;11.30;100.00;98330.25;18564569;32;19984;-58
2023/05/03 07:58:57;;;;;;;;;;;;;;;11.81;100.00;98329.81;18537494;32;20373;-57
2023/05/03 08:09:10;;;;;;;;;;;;;;;12.43;100.00;98324.72;18549360;32;20388;-58
2023/05/03 08:19:13;;;;;;;;;;;;;;;12.95;100.00;98322.09;18548887;32;19981;-58
2023/05/03 08:29:15;;;;;;;;;;;;;;;13.41;100.00;98324.06;18548122;32;19952;-57
2023/05/03 08:39:18;;;;;;;;;;;;;;;13.79;100.00;98325.38;18546931;32;19961;-58
2023/05/03 08:49:20;;;;;;;;;;;;;;;14.34;100.00;98319.22;18561748;32;20016;-57
2023/05/03 08:59:28;;;;;;;;;;;;;;;14.40;98.58;98324.37;18560891;32;19957;-58
2023/05/03 09:09:31;;;;;;;;;;;;;;;14.19;100.00;98333.69;18560490;31;20012;-57
2023/05/03 09:19:48;;;;;;;;;;;;;;;14.31;100.00;98336.91;18560803;32;19981;-57
2023/05/03 09:29:51;;;;;;;;;;;;;;;14.37;100.00;98337.72;18560312;32;20027;-57
2023/05/03 09:40:06;;;;;;;;;;;;;;;14.77;100.00;98337.81;18545624;32;20000;-57
2023/05/03 09:50:09;;;;;;;;;;;;;;;15.08;94.71;98335.72;18560194;32;20280;-57
2023/05/03 10:00:12;;;;;;;;;;;;;;;15.04;100.00;98332.75;18559582;32;19957;-57
2023/05/03 10:10:16;;;;;;;;;;;;;;;15.69;91.03;98336.31;18560616;32;19957;-57
2023/05/03 10:20:23;;;;;;;;;;;;;;;16.07;90.35;98341.97;18570097;32;19990;-58
2023/05/03 10:30:34;;;;;;;;;;;;;;;16.43;82.68;98322.44;18555740;32;20296;-54
2023/05/03 10:40:42;;;;;;;;;;;;;;;16.86;84.53;98306.00;18569022;32;20272;-54
2023/05/03 10:50:46;;;;;;;;;;;;;;;17.33;81.64;98299.88;18568240;32;19956;-55
2023/05/03 11:00:50;;;;;;;;;;;;;;;17.90;81.92;98296.94;18567668;32;19956;-56
2023/05/03 11:10:57;;;;;;;;;;;;;;;18.41;72.89;98281.44;18567155;32;19971;-56
2023/05/03 11:21:00;;;;;;;;;;;;;;;18.46;72.42;98267.66;18565945;32;19986;-56
2023/05/03 11:31:05;;;;;;;;;;;;;;;18.77;69.73;98258.72;18565865;32;19956;-56
2023/05/03 11:41:17;;;;;;;;;;;;;;;19.12;74.67;98250.81;18564963;32;19956;-56
2023/05/03 11:51:21;;;;;;;;;;;;;;;19.79;68.50;98238.91;18564762;31;20004;-56
2023/05/03 12:01:27;;;;;;;;;;;;;;;20.20;68.30;98239.72;18564122;32;19957;-58
2023/05/03 12:11:39;;;;;;;;;;;;;;;20.77;60.44;98230.56;18563594;32;19979;-57
2023/05/03 12:21:45;;;;;;;;;;;;;;;20.98;59.62;98227.97;18548697;32;20006;-58
2023/05/03 12:32:05;;;;;;;;;;;;;;;20.94;60.17;98213.28;18562139;32;19952;-57
2023/05/03 12:42:08;;;;;;;;;;;;;;;21.23;57.85;98205.47;18560790;32;20272;-57
2023/05/03 12:52:16;;;;;;;;;;;;;;;21.52;57.10;98192.91;18561340;32;19993;-57
2023/05/03 13:02:40;;;;;;;;;;;;;;;22.37;62.67;98180.19;18561333;32;19987;-57
2023/05/03 13:13:03;;;;;;;;;;;;;;;23.10;51.26;98174.16;18546435;32;20002;-57
2023/05/03 13:23:06;;;;;;;;;;;;;;;23.34;46.85;98151.38;18560689;32;19956;-57
2023/05/03 13:33:09;;;;;;;;;;;;;;;23.93;47.65;98143.81;18559858;32;19991;-57
2023/05/03 13:43:12;;;;;;;;;;;;;;;24.51;44.78;98129.72;18545109;32;20371;-57
2023/05/03 13:53:23;;;;;;;;;;;;;;;24.93;42.00;98111.13;18557249;32;19983;-57
2023/05/03 14:03:26;;;;;;;;;;;;;;;25.23;42.94;98114.28;18571530;32;20328;-57
2023/05/03 14:13:30;;;;;;;;;;;;;;;25.42;40.60;98099.75;18557016;32;19945;-57
2023/05/03 14:23:49;;;;;;;;;;;;;;;26.32;38.40;98085.12;18570175;32;20367;-57
2023/05/03 14:33:52;;;;;;;;;;;;;;;26.64;41.25;98079.44;18568916;32;20384;-54
2023/05/03 14:43:55;;;;;;;;;;;;;;;26.73;36.47;98070.13;18554525;32;19988;-57
2023/05/03 14:53:58;;;;;;;;;;;;;;;26.75;33.56;98071.34;18554242;32;19979;-57
2023/05/03 15:04:02;;;;;;;;;;;;;;;26.49;31.77;98072.00;18567227;32;19963;-56
2023/05/03 15:14:06;;;;;;;;;;;;;;;25.34;36.27;98059.22;18552644;32;19992;-56
2023/05/03 15:24:17;;;;;;;;;;;;;;;24.51;38.72;98065.34;18566805;32;19957;-57
2023/05/03 15:34:20;;;;;;;;;;;;;;;23.99;36.01;98067.03;18565139;32;19956;-56
2023/05/03 15:44:24;;;;;;;;;;;;;;;23.79;35.74;98058.53;18550762;32;19988;-56
2023/05/03 15:54:27;;;;;;;;;;;;;;;23.42;36.75;98060.53;18564611;32;20351;-56
2023/05/03 16:04:38;;;;;;;;;;;;;;;22.86;39.48;98061.84;18550582;32;19960;-55
2023/05/03 16:14:41;;;;;;;;;;;;;;;22.45;39.37;98044.31;18563230;32;19956;-56
2023/05/03 16:24:45;;;;;;;;;;;;;;;22.42;38.99;98050.47;18562351;32;19964;-55
2023/05/03 16:34:49;;;;;;;;;;;;;;;23.35;36.62;98039.84;18561767;32;19956;-55
2023/05/03 16:44:55;;;;;;;;;;;;;;;23.56;35.35;98040.84;18547955;32;20016;-54
2023/05/03 16:54:58;;;;;;;;;;;;;;;23.57;36.75;98032.25;18561404;32;19952;-55
2023/05/03 17:05:03;;;;;;;;;;;;;;;22.62;38.09;98030.31;18561154;32;19971;-55
2023/05/03 17:15:48;;;;;;;;;;;;;;;21.23;38.66;98038.50;18560808;32;19964;-55
2023/05/03 17:26:15;;;;;;;;;;;;;;;20.26;40.70;98037.16;18557363;32;20008;-54
2023/05/03 17:36:17;;;;;;;;;;;;;;;19.68;43.44;98033.72;18572757;32;20361;-54
2023/05/03 17:46:23;;;;;;;;;;;;;;;19.09;43.71;98032.16;18558942;32;19964;-52
2023/05/03 17:56:26;;;;;;;;;;;;;;;18.44;48.97;98042.63;18545268;32;19944;-53
2023/05/03 18:06:28;;;;;;;;;;;;;;;17.75;52.49;98047.22;18571197;32;19997;-55
2023/05/03 18:16:31;;;;;;;;;;;;;;;17.37;51.21;98047.47;18557047;32;19945;-54
2023/05/03 18:26:34;;;;;;;;;;;;;;;16.78;57.44;98056.22;18555883;32;19975;-54
2023/05/03 18:36:37;;;;;;;;;;;;;;;16.40;57.82;98063.75;18555261;32;20281;-52
2023/05/03 18:46:40;;;;;;;;;;;;;;;15.80;61.79;98067.94;18568942;32;19956;-55
2023/05/03 18:56:42;;;;;;;;;;;;;;;15.40;63.80;98061.88;18568360;32;20376;-54
2023/05/03 19:06:46;;;;;;;;;;;;;;;15.02;68.61;98083.56;18567441;31;20401;-55
2023/05/03 19:16:48;;;;;;;;;;;;;;;14.69;75.36;98081.47;18567253;32;19997;-54
2023/05/03 19:26:51;;;;;;;;;;;;;;;14.40;77.06;98087.69;18566598;32;20000;-54
2023/05/03 19:36:54;;;;;;;;;;;;;;;13.99;83.67;98095.31;18565664;32;20310;-54
2023/05/03 19:46:57;;;;;;;;;;;;;;;13.59;91.02;98092.53;18564793;32;19948;-53
2023/05/03 19:57:06;;;;;;;;;;;;;;;13.27;96.66;98092.94;18550286;32;20344;-52
2023/05/03 20:07:08;;;;;;;;;;;;;;;12.88;100.00;98088.94;18563683;32;20287;-56
2023/05/03 20:17:11;;;;;;;;;;;;;;;12.49;100.00;98092.28;18564093;32;19967;-55
2023/05/03 20:27:14;;;;;;;;;;;;;;;12.18;100.00;98087.66;18548909;32;19961;-54
2023/05/03 20:37:17;;;;;;;;;;;;;;;11.91;100.00;98095.16;18561957;32;20316;-54
2023/05/03 20:47:19;;;;;;;;;;;;;;;11.67;100.00;98098.38;18561704;32;20016;-55
2023/05/03 20:57:22;;;;;;;;;;;;;;;11.43;100.00;98081.75;18560604;31;19971;-55
2023/05/03 21:07:24;;;;;;;;;;;;;;;11.19;100.00;98083.00;18534209;32;19965;-51
2023/05/03 21:17:26;;;;;;;;;;;;;;;11.00;100.00;98071.03;18560886;32;20245;-52
2023/05/03 21:27:29;;;;;;;;;;;;;;;10.75;100.00;98064.37;18560452;32;20306;-54
2023/05/03 21:37:32;;;;;;;;;;;;;;;10.52;100.00;98057.47;18559844;32;19961;-52
2023/05/03 21:47:34;;;;;;;;;;;;;;;10.30;100.00;98069.19;18545726;32;20302;-55
2023/05/03 21:57:36;;;;;;;;;;;;;;;10.05;100.00;98052.78;18559629;32;19975;-55
2023/05/03 22:07:39;;;;;;;;;;;;;;;9.88;100.00;98048.31;18562295;32;20011;-54
2023/05/03 22:17:41;;;;;;;;;;;;;;;9.65;100.00;98052.13;18557435;32;20356;-52
2023/05/03 22:27:43;;;;;;;;;;;;;;;9.49;100.00;98049.25;18570262;32;19976;-55
2023/05/03 22:37:45;;;;;;;;;;;;;;;9.32;100.00;98043.16;18569780;32;20298;-54
2023/05/03 22:47:47;;;;;;;;;;;;;;;9.21;100.00;98042.22;18568660;32;19965;-53
2023/05/03 22:57:50;;;;;;;;;;;;;;;9.04;100.00;98047.66;18568464;32;20253;-54
2023/05/03 23:07:52;;;;;;;;;;;;;;;8.91;100.00;98048.03;18567725;32;20372;-53
2023/05/03 23:17:54;;;;;;;;;;;;;;;8.82;100.00;98042.25;18566395;32;19957;-53
2023/05/03 23:27:57;;;;;;;;;;;;;;;8.64;100.00;98027.19;18566540;32;19996;-53
2023/05/03 23:37:59;;;;;;;;;;;;;;;8.49;100.00;98041.25;18565607;32;20000;-54
2023/05/03 23:48:02;;;;;;;;;;;;;;;8.37;100.00;98037.81;18565296;32;19956;-53
2023/05/03 23:58:04;;;;;;;;;;;;;;;8.26;100.00;98034.13;18565060;32;19953;-54
